Latest Weather Observations for Ballina

IDN60801

Issued at 9:32 am EST Saturday 30 April 2016 (issued every 30 minutes, with the page automatically refreshed every 10 minutes)

About weather observations | Map of weather stations | Latest weather observations for NSW | Other Formats
Station Details ID: 058198 Name: BALLINA AIRPORT AWS Lat: -28.84 Lon: 153.56 Height: 1.3 m
Data from the previous 72 hours. | See also: Recent months at Ballina
Date/Time
EST
Temp
°C
App
Temp
°C
Dew
Point
Rel
Hum
%
Delta-T
°C
Wind Press
QNH
hPa
Press
MSL
hPa
Rain
since 9 am
mm
Dir
 
Spd
km/h
Gust
km/h
Spd
kts
Gust
kts
30/09:00am 22.3 25.9 19.7 85 1.7 CALM 0 0 0 0 1022.3 1022.3 0.0
30/08:30am 21.5 25.1 19.8 90 1.1 CALM 0 0 0 0 1022.1 1022.1 0.0
30/08:00am 20.6 24.1 19.6 94 0.6 CALM 0 0 0 0 1022.1 1022.1 0.0
30/07:30am 19.6 23.0 19.3 98 0.2 CALM 0 0 0 0 1021.9 1021.9 0.0
30/07:00am 18.5 21.4 18.3 99 0.1 CALM 0 0 0 0 1021.7 1021.7 0.0
30/06:30am 18.2 21.0 17.9 98 0.2 CALM 0 0 0 0 1021.5 1021.5 0.0
30/06:00am 18.5 21.4 18.2 98 0.2 CALM 0 0 0 0 1021.4 1021.4 0.0
30/05:30am 18.8 21.8 18.5 98 0.2 CALM 0 0 0 0 1021.1 1021.1 0.0
30/05:00am 18.8 21.9 18.6 99 0.1 CALM 0 0 0 0 1020.9 1020.9 0.0
30/04:30am 18.6 21.5 18.3 98 0.2 CALM 0 0 0 0 1020.8 1020.8 0.0
30/04:00am 18.4 21.3 18.1 98 0.2 CALM 0 0 0 0 1020.5 1020.5 0.0
30/03:30am 18.5 21.0 18.2 98 0.2 NW 2 6 1 3 1020.4 1020.4 0.0
30/03:00am 18.5 20.8 17.7 95 0.5 NW 2 6 1 3 1020.7 1020.7 0.0
30/02:30am 19.3 21.4 19.0 98 0.2 NNW 6 7 3 4 1020.7 1020.7 0.0
30/02:00am 18.7 21.6 18.2 97 0.3 CALM 0 7 0 4 1021.1 1021.1 0.0
30/01:30am 18.5 21.3 17.9 96 0.4 CALM 0 0 0 0 1021.2 1021.2 0.0
30/01:00am 18.6 21.5 18.1 97 0.3 CALM 0 0 0 0 1021.5 1021.5 0.0
30/12:30am 18.6 21.5 18.1 97 0.3 CALM 0 0 0 0 1021.5 1021.5 0.0
30/12:00am 18.3 20.9 17.5 95 0.5 CALM 0 0 0 0 1021.7 1021.7 0.0
 
Date/Time
EST
Temp
°C
App
Temp
°C
Dew
Point
Rel
Hum
%
Delta-T
°C
Wind Press
QNH
hPa
Press
MSL
hPa
Rain
since 9 am
mm
Dir
 
Spd
km/h
Gust
km/h
Spd
kts
Gust
kts
29/11:30pm 18.3 20.8 17.3 94 0.6 CALM 0 0 0 0 1022.2 1022.2 0.0
29/11:00pm 18.7 21.4 17.7 94 0.6 CALM 0 0 0 0 1022.5 1022.5 0.0
29/10:30pm 18.9 20.9 17.9 94 0.6 NW 4 7 2 4 1023.0 1023.0 0.0
29/10:00pm 19.3 22.0 17.8 91 0.9 CALM 0 0 0 0 1022.8 1022.8 0.0
29/09:30pm 19.9 22.7 18.0 89 1.2 CALM 0 2 0 1 1022.9 1022.9 0.0
29/09:00pm 20.6 21.9 18.5 88 1.3 NNW 9 11 5 6 1022.9 1022.9 0.0
29/08:30pm 20.5 22.3 18.8 90 1.1 N 7 9 4 5 1022.7 1022.7 0.0
29/08:00pm 20.2 22.1 19.0 93 0.8 NNW 7 9 4 5 1022.7 1022.7 0.0
29/07:30pm 19.9 23.0 18.6 92 0.8 CALM 0 0 0 0 1022.4 1022.4 0.0
29/07:00pm 20.1 23.3 18.8 92 0.8 CALM 0 0 0 0 1022.2 1022.2 0.0
29/06:30pm 19.9 22.3 17.9 88 1.2 NNE 2 6 1 3 1022.1 1022.1 0.0
29/06:00pm 20.4 22.2 18.2 87 1.4 NNE 6 6 3 3 1021.8 1021.8 0.0
29/05:30pm 20.8 22.2 17.8 83 1.9 NNE 7 9 4 5 1021.8 1021.8 0.0
29/05:00pm 21.8 23.3 18.0 79 2.4 NE 7 11 4 6 1021.5 1021.5 0.0
29/04:30pm 23.0 25.0 18.7 77 2.7 ENE 6 7 3 4 1021.2 1021.2 0.0
29/04:00pm 23.6 24.2 18.5 73 3.2 ENE 13 17 7 9 1021.1 1021.1 0.0
29/03:30pm 24.6 25.0 18.1 67 4.1 ENE 13 19 7 10 1021.0 1021.0 0.0
29/03:00pm 24.5 24.9 18.2 68 4.0 ENE 13 19 7 10 1021.1 1021.1 0.0
29/02:30pm 25.1 25.0 18.8 68 4.0 ENE 17 20 9 11 1021.1 1021.1 0.0
29/02:00pm 25.2 25.3 18.4 66 4.3 E 15 20 8 11 1021.2 1021.2 0.0
29/01:30pm 24.8 25.7 18.5 68 4.0 ENE 11 19 6 10 1021.4 1021.4 0.0
29/01:00pm 24.7 25.7 18.6 69 3.9 E 11 15 6 8 1021.6 1021.6 0.0
29/12:30pm 24.4 25.0 17.6 66 4.2 ENE 11 17 6 9 1022.1 1022.1 0.0
29/12:00pm 24.6 25.5 18.5 69 3.8 E 11 19 6 10 1022.7 1022.7 0.0
29/11:30am 24.2 25.0 18.2 69 3.8 SE 11 19 6 10 1023.1 1023.1 0.0
29/11:00am 24.8 25.5 18.0 66 4.3 SE 11 13 6 7 1023.5 1023.5 0.0
29/10:30am 23.7 25.1 17.7 69 3.7 SSW 7 11 4 6 1024.3 1024.3 0.0
29/10:00am 22.7 23.7 17.8 74 3.0 WSW 9 13 5 7 1024.8 1024.8 0.0
29/09:30am 22.0 23.4 18.6 81 2.1 WSW 9 15 5 8 1024.7 1024.7 0.0
29/09:00am 20.6 22.4 18.7 89 1.2 W 7 11 4 6 1025.0 1025.0 0.4
29/08:30am 19.7 20.3 17.8 89 1.2 NW 11 13 6 7 1025.1 1025.1 0.4
29/08:00am 19.3 20.8 18.0 92 0.8 WSW 7 9 4 5 1024.7 1024.7 0.4
29/07:30am 18.3 20.1 17.5 95 0.5 W 4 7 2 4 1024.6 1024.6 0.4
29/07:00am 17.0 18.0 16.8 99 0.1 WSW 7 9 4 5 1024.3 1024.3 0.4
29/06:30am 16.5 17.3 16.3 99 0.1 W 7 9 4 5 1024.1 1024.1 0.4
29/06:00am 16.7 17.1 16.4 98 0.2 W 9 11 5 6 1023.7 1023.7 0.4
29/05:30am 17.2 18.2 16.9 98 0.2 W 7 7 4 4 1023.4 1023.4 0.4
29/05:00am 17.5 18.7 17.3 99 0.1 WSW 7 11 4 6 1023.3 1023.3 0.4
29/04:30am 17.0 18.0 16.8 99 0.1 NNW 7 20 4 11 1023.3 1023.3 0.0
29/04:00am 16.2 18.2 16.0 99 0.1 CALM 0 0 0 0 1022.9 1022.9 0.0
29/03:30am 16.1 18.1 15.9 99 0.1 CALM 0 0 0 0 1022.7 1022.7 0.0
29/03:00am 15.5 16.5 15.3 99 0.1 ENE 4 9 2 5 1022.9 1022.9 0.0
29/02:49am 15.0 14.8 14.8 99 0.1 NE 9 11 5 6 1023.1 1023.1 0.0
29/02:30am 15.0 16.6 14.8 99 0.1 CALM 0 0 0 0 1023.5 1023.5 0.0
29/02:00am 15.0 16.5 14.7 98 0.2 CALM 0 0 0 0 1023.3 1023.3 0.0
29/01:52am 14.9 16.4 14.6 98 0.2 CALM 0 0 0 0 1023.4 1023.4 0.0
29/01:41am 15.5 17.2 15.3 99 0.1 CALM 0 0 0 0 1023.5 1023.5 0.0
29/01:30am 15.4 17.1 15.2 99 0.1 CALM 0 0 0 0 1023.6 1023.6 0.0
29/01:20am 15.4 17.1 15.1 98 0.2 CALM 0 0 0 0 1023.7 1023.7 0.0
29/01:14am 15.1 16.6 14.6 97 0.3 CALM 0 0 0 0 1023.7 1023.7 0.0
29/01:00am 15.0 16.5 14.7 98 0.2 CALM 0 0 0 0 1023.9 1023.9 0.0
29/12:30am 15.6 17.3 15.1 97 0.3 CALM 0 0 0 0 1024.0 1024.0 0.0
29/12:25am 15.7 17.4 15.2 97 0.3 CALM 0 0 0 0 1024.0 1024.0 0.0
29/12:18am 16.0 17.9 15.7 98 0.2 CALM 0 0 0 0 1024.0 1024.0 0.0
29/12:00am 15.9 17.6 15.3 96 0.3 CALM 0 0 0 0 1024.0 1024.0 0.0
 
Date/Time
EST
Temp
°C
App
Temp
°C
Dew
Point
Rel
Hum
%
Delta-T
°C
Wind Press
QNH
hPa
Press
MSL
hPa
Rain
since 9 am
mm
Dir
 
Spd
km/h
Gust
km/h
Spd
kts
Gust
kts
28/11:53pm 16.0 17.8 15.4 96 0.3 CALM 0 0 0 0 1024.1 1024.1 0.0
28/11:30pm 16.6 18.0 16.3 98 0.2 W 4 7 2 4 1024.1 1024.1 0.0
28/11:00pm 16.3 17.0 15.7 96 0.3 W 6 7 3 4 1024.4 1024.4 0.0
28/10:30pm 17.0 17.8 16.4 96 0.4 W 7 7 4 4 1024.5 1024.5 0.0
28/10:00pm 16.9 18.9 15.9 94 0.6 CALM 0 0 0 0 1024.5 1024.5 0.0
28/09:30pm 17.9 19.2 17.1 95 0.5 W 6 6 3 3 1024.4 1024.4 0.0
28/09:00pm 17.6 19.2 17.0 96 0.4 WNW 4 9 2 5 1024.4 1024.4 0.0
28/08:30pm 17.7 20.1 17.1 96 0.4 CALM 0 0 0 0 1024.3 1024.3 0.0
28/08:00pm 17.7 20.1 16.9 95 0.5 CALM 0 0 0 0 1024.2 1024.2 0.0
28/07:30pm 18.4 20.7 17.6 95 0.5 N 2 6 1 3 1024.0 1024.0 0.0
28/07:00pm 18.4 20.5 17.2 93 0.7 ESE 2 7 1 4 1023.8 1023.8 0.0
28/06:30pm 19.0 21.6 17.5 91 0.9 CALM 0 0 0 0 1023.6 1023.6 0.0
28/06:00pm 19.5 22.0 17.3 87 1.3 CALM 0 0 0 0 1023.4 1023.4 0.0
28/05:30pm 20.7 23.0 16.7 78 2.4 CALM 0 0 0 0 1023.1 1023.1 0.0
28/05:00pm 22.1 23.0 16.6 71 3.3 ESE 7 9 4 5 1022.9 1022.9 0.0
28/04:30pm 23.1 23.2 16.6 67 4.0 ESE 11 15 6 8 1022.8 1022.8 0.0
28/04:00pm 23.8 23.9 16.6 64 4.4 ESE 11 15 6 8 1022.8 1022.8 0.0
28/03:30pm 24.3 23.8 16.0 60 5.0 E 13 17 7 9 1022.7 1022.7 0.0
28/03:00pm 24.7 25.1 17.2 63 4.6 ESE 11 19 6 10 1022.6 1022.6 0.0
28/02:30pm 24.7 24.6 17.9 66 4.3 SSE 15 20 8 11 1022.6 1022.6 0.0
28/02:00pm 24.5 24.6 18.4 69 3.8 SSE 15 19 8 10 1022.8 1022.8 0.0
28/01:30pm 24.2 23.9 17.4 65 4.2 SSE 15 20 8 11 1022.8 1022.8 0.0
28/01:00pm 24.9 25.6 18.8 69 3.9 SSE 13 19 7 10 1023.0 1023.0 0.0
28/12:30pm 24.1 24.5 18.1 69 3.8 SSE 13 20 7 11 1023.4 1023.4 0.0
28/12:00pm 24.4 24.7 18.8 71 3.5 SE 15 19 8 10 1023.8 1023.8 0.0
28/11:30am 23.5 23.9 18.2 72 3.3 SSE 13 17 7 9 1024.2 1024.2 0.0
28/11:00am 23.3 24.0 18.8 76 2.8 SW 13 17 7 9 1024.7 1024.7 0.0
28/10:46am 22.7 23.3 18.7 78 2.5 S 13 17 7 9 1024.7 1024.7 0.0
28/10:30am 22.9 24.0 18.9 78 2.5 SSW 11 17 6 9 1024.9 1024.9 0.0
28/10:00am 22.1 23.1 18.7 81 2.1 SSW 11 15 6 8 1025.1 1025.1 0.0
28/09:49am 22.3 23.5 19.1 82 2.0 SSW 11 15 6 8 1025.1 1025.1 0.0
28/09:30am 21.9 23.4 18.9 83 1.9 SW 9 15 5 8 1025.0 1025.0 0.0
28/09:00am 20.9 22.4 19.0 89 1.2 WSW 9 13 5 7 1024.8 1024.8 4.8
28/08:30am 20.2 21.3 18.9 92 0.8 W 11 13 6 7 1025.1 1025.1 4.8
28/08:00am 19.6 21.0 18.6 94 0.6 W 9 13 5 7 1024.7 1024.7 4.8
28/07:57am 19.7 21.1 18.7 94 0.6 W 9 11 5 6 1024.7 1024.7 4.8
28/07:30am 18.8 19.9 18.0 95 0.5 W 9 13 5 7 1024.3 1024.3 4.8
28/07:00am 18.1 19.7 17.9 99 0.1 WNW 6 7 3 4 1024.1 1024.1 4.8
28/06:30am 17.6 18.4 17.4 99 0.1 W 9 9 5 5 1024.1 1024.1 4.8
28/06:00am 17.7 19.2 17.5 99 0.1 W 6 9 3 5 1023.9 1023.9 4.8
28/05:30am 17.8 18.4 17.6 99 0.1 WNW 11 13 6 7 1023.6 1023.6 4.8
28/05:00am 17.9 18.9 17.7 99 0.1 W 9 13 5 7 1023.4 1023.4 4.8
28/04:30am 17.7 19.5 17.5 99 0.1 W 4 6 2 3 1023.2 1023.2 4.8
28/04:00am 17.4 19.5 17.1 98 0.2 W 2 9 1 5 1023.1 1023.1 4.8
28/03:30am 17.7 18.6 17.5 99 0.1 W 9 11 5 6 1023.1 1023.1 4.8
28/03:00am 17.7 18.9 17.4 98 0.2 W 7 11 4 6 1023.3 1023.3 4.8
28/02:30am 17.9 19.3 17.7 99 0.1 NW 7 11 4 6 1023.3 1023.3 4.6
28/02:00am 17.9 18.9 17.7 99 0.1 W 9 13 5 7 1023.5 1023.5 4.6
28/01:30am 17.9 19.2 17.6 98 0.2 SW 7 9 4 5 1023.8 1023.8 4.6
28/01:00am 18.1 19.5 17.8 98 0.2 WSW 7 11 4 6 1024.0 1024.0 4.6
28/12:30am 18.2 18.9 17.9 98 0.2 WSW 11 13 6 7 1024.0 1024.0 4.6
28/12:00am 18.4 19.2 18.1 98 0.2 WSW 11 15 6 8 1024.1 1024.1 4.6
 
Date/Time
EST
Temp
°C
App
Temp
°C
Dew
Point
Rel
Hum
%
Delta-T
°C
Wind Press
QNH
hPa
Press
MSL
hPa
Rain
since 9 am
mm
Dir
 
Spd
km/h
Gust
km/h
Spd
kts
Gust
kts
27/11:30pm 18.3 19.8 18.0 98 0.2 WSW 7 11 4 6 1024.1 1024.1 4.6
27/11:00pm 18.4 19.5 18.1 98 0.2 WSW 9 13 5 7 1024.2 1024.2 4.6
27/10:30pm 18.6 19.8 18.3 98 0.2 WSW 9 11 5 6 1024.3 1024.3 4.6
27/10:14pm 18.7 20.0 18.5 99 0.1 NW 9 11 5 6 1024.4 1024.4 4.6
27/10:00pm 18.7 20.4 18.4 98 0.2 NW 7 11 4 6 1024.5 1024.5 4.6
27/09:47pm 18.6 19.8 18.3 98 0.2 NE 9 20 5 11 1024.8 1024.8 4.0
27/09:30pm 18.4 19.2 18.1 98 0.2 WSW 11 13 6 7 1024.3 1024.3 3.2
27/09:00pm 18.3 19.3 17.8 97 0.3 WSW 9 11 5 6 1024.3 1024.3 3.2
27/08:45pm 18.6 20.1 18.1 97 0.3 W 7 9 4 5 1024.4 1024.4 3.2
27/08:30pm 18.6 19.0 18.1 97 0.3 S 13 19 7 10 1024.5 1024.5 3.0
27/08:25pm 18.2 18.8 17.6 96 0.4 SSW 11 19 6 10 1024.6 1024.6 2.0
27/08:00pm 17.8 18.8 16.8 94 0.6 W 7 9 4 5 1024.4 1024.4 0.6
27/07:30pm 18.7 19.2 17.4 92 0.8 WSW 11 13 6 7 1024.1 1024.1 0.6
27/07:00pm 18.5 19.8 17.2 92 0.8 SW 6 9 3 5 1023.9 1023.9 0.6
27/06:30pm 19.2 20.2 17.7 91 0.9 SW 9 15 5 8 1023.8 1023.8 0.6
27/06:00pm 19.2 19.7 17.5 90 1.0 SW 11 15 6 8 1023.6 1023.6 0.6
27/05:30pm 19.5 20.4 17.5 88 1.2 SW 9 15 5 8 1023.5 1023.5 0.6
27/05:00pm 19.5 20.4 17.6 89 1.2 SSW 9 13 5 7 1023.2 1023.2 0.6
27/04:54pm 19.5 20.4 17.5 88 1.2 SSW 9 13 5 7 1023.2 1023.2 0.6
27/04:33pm 19.7 18.4 16.9 84 1.7 SE 19 28 10 15 1023.3 1023.3 0.4
27/04:30pm 20.2 18.8 16.6 80 2.2 ESE 19 28 10 15 1023.3 1023.3 0.4
27/04:00pm 21.1 19.7 17.9 82 2.0 E 22 32 12 17 1023.1 1023.1 0.4
27/03:30pm 21.6 20.4 17.0 75 2.8 ESE 19 26 10 14 1022.6 1022.6 0.4
27/03:02pm 21.5 21.0 18.7 84 1.8 ESE 19 30 10 16 1022.6 1022.6 0.4
27/03:00pm 21.5 21.6 19.1 86 1.5 ESE 17 28 9 15 1022.6 1022.6 0.4
27/02:38pm 21.5 21.2 18.3 82 2.0 E 17 26 9 14 1022.8 1022.8 0.2
27/02:30pm 22.8 22.3 17.7 73 3.2 E 17 26 9 14 1022.7 1022.7 0.0
27/02:00pm 24.7 24.2 17.7 65 4.4 SSE 17 24 9 13 1022.7 1022.7 0.0
27/01:30pm 22.4 20.7 16.2 68 3.8 SE 20 28 11 15 1023.1 1023.1 0.0
27/01:00pm 24.1 22.9 16.1 61 4.8 E 17 26 9 14 1023.3 1023.3 0.0
27/12:30pm 25.0 23.6 15.6 56 5.7 ESE 17 26 9 14 1023.5 1023.5 0.0
27/12:00pm 24.6 22.6 15.0 55 5.7 ESE 19 26 10 14 1023.9 1023.9 0.0
27/11:30am 24.9 23.1 15.5 56 5.7 ESE 19 28 10 15 1024.2 1024.2 0.0
27/11:00am 24.3 22.4 15.2 57 5.4 ESE 19 24 10 13 1024.5 1024.5 0.0
27/10:30am 24.5 23.3 16.0 59 5.2 ESE 17 24 9 13 1024.9 1024.9 0.0
27/10:00am 23.7 24.0 16.0 62 4.6 S 9 15 5 8 1025.2 1025.2 0.0

Other Formats:

Comma delimited format used in spreadsheet applications
http://www.bom.gov.au/fwo/IDN60801/IDN60801.94596.axf

JavaScript Object Notation format (JSON) in row-major order
http://www.bom.gov.au/fwo/IDN60801/IDN60801.94596.json